Flight Track Log - Related Links

Times and Time Zones

All times are in EDT time to prevent confusion due to time zone crossing. See the SWA127 flight status page for this flight to view local times or setup timezone preferences in your user account.

Time Position Orientation Groundspeed Altitude Reporting Facility
EDT Latitude Longitude Course Direction KTS MPH feet Rate Location/Type
Mon 11:37:37 AM 29.6583 -95.2647 96° East 164 189 800  Level Houston Center
Mon 11:38:14 AM 29.6558 -95.2386 96° East 158 182 2,000 1,682 Climbing Houston Center
Mon 11:39:24 AM 29.6006 -95.2314 174° South 214 246 3,800 2,045 Climbing Houston Center
Mon 11:40:26 AM 29.5158 -95.2289 179° South 258 297 6,500 2,496 Climbing Houston Center
Mon 11:41:29 AM 29.4369 -95.2367 185° South 287 330 9,000 2,016 Climbing Houston Center
Mon 11:42:31 AM 29.3547 -95.2603 194° South 315 362 10,700 2,274 Climbing Houston Center
Mon 11:43:33 AM 29.2794 -95.3303 219° Southwest 345 397 13,700 2,613 Climbing Houston Center
Mon 11:44:35 AM 29.2064 -95.3978 219° Southwest 339 390 16,100 1,645 Climbing Houston Center
Mon 11:45:37 AM 29.1447 -95.5200 240° Southwest 372 428 17,100 1,452 Climbing Houston Center
Mon 11:46:39 AM 29.0783 -95.6092 230° Southwest 370 426 19,100 2,032 Climbing Houston Center
Mon 11:47:41 AM 29.0042 -95.6989 227° Southwest 386 444 21,300 2,081 Climbing Houston Center
Mon 11:48:43 AM 28.9286 -95.7919 227° Southwest 396 456 23,400 1,839 Climbing Houston Center
Mon 11:49:45 AM 28.8528 -95.8850 227° Southwest 401 461 25,100 1,680 Climbing Houston Center
Mon 11:50:48 AM 28.7689 -95.9892 227° Southwest 416 479 26,900 1,728 Climbing Houston Center
Mon 11:51:50 AM 28.6894 -96.0858 227° Southwest 417 480 28,700 1,887 Climbing Houston Center
Mon 11:52:52 AM 28.6106 -96.1819 227° Southwest 414 476 30,800 1,597 Climbing Houston Center
Mon 11:53:54 AM 28.5211 -96.2914 227° Southwest 397 457 32,000 581 Climbing Houston Center
Mon 11:54:56 AM 28.4450 -96.3842 227° Southwest 397 457 32,000  Level Houston Center
Mon 11:55:58 AM 28.3700 -96.4769 227° Southwest 398 458 32,000  Level Houston Center
Mon 11:57:00 AM 28.2936 -96.5672 226° Southwest 397 457 32,000  Level Houston Center
Mon 11:58:02 AM 28.2186 -96.6575 227° Southwest 393 452 32,000  Level Houston Center
Mon 11:59:05 AM 28.1433 -96.7481 227° Southwest 394 453 32,000  Level Houston Center
Mon 12:00:07 PM 28.0514 -96.8208 215° Southwest 408 470 32,000  Level Houston Center
Mon 12:01:09 PM 27.9236 -96.8828 203° Southwest 414 476 32,000  Level Houston Center
Mon 12:02:11 PM 27.8164 -96.9339 203° Southwest 417 480 32,000 -48 Level Houston Center
Mon 12:03:13 PM 27.7097 -96.9867 204° Southwest 418 481 31,900 -1,452 Descending Houston Center
Mon 12:04:15 PM 27.6025 -97.0394 204° Southwest 418 481 29,000 -2,613 Descending Houston Center
Mon 12:05:17 PM 27.4950 -97.0867 201° Southwest 416 479 26,500 -2,419 Descending Houston Center
Mon 12:06:19 PM 27.3764 -97.1103 190° South 407 468 24,000 -2,323 Descending Houston Center
Mon 12:07:21 PM 27.2700 -97.1381 193° South 397 457 21,700 -2,352 Descending Houston Center
Mon 12:08:24 PM 27.1467 -97.1697 193° South 383 441 19,100 -2,304 Descending Houston Center
Mon 12:09:26 PM 27.0567 -97.2178 205° Southwest 363 418 16,900 -2,093 Descending Houston Center
Mon 12:09:50 PM 27.0192 -97.2433 211° Southwest 353 406 16,100 -822 Descending Houston Center
Mon 12:10:39 PM 26.9536 -97.2806 207° Southwest 304 350 15,900 -360 Descending Houston Center
Mon 12:11:30 PM 26.9064 -97.3081 207° Southwest 286 329 15,500 -2,867 Descending Houston Center
Mon 12:12:32 PM 26.8169 -97.3597 207° Southwest 339 390 10,500 -2,855 Descending Houston Center
Mon 12:13:34 PM 26.7450 -97.4386 224° Southwest 333 383 9,600 -1,292 Descending Houston Center
Mon 12:14:42 PM 26.6803 -97.5103 225° Southwest 270 311 7,700 -1,694 Descending Houston Center
Mon 12:15:38 PM 26.6275 -97.5644 223° Southwest 281 323 6,100 -1,412 Descending Houston Center
Mon 12:16:41 PM 26.5583 -97.6025 206° Southwest 275 316 4,900 -1,344 Descending Houston Center
Mon 12:17:43 PM 26.4881 -97.6367 204° Southwest 267 307 3,300 -1,403 Descending Houston Center
Mon 12:18:45 PM 26.4239 -97.6567 196° South 255 293 2,000 -629 Descending Houston Center
Mon 12:19:47 PM 26.3544 -97.6575 181° South 220 253 2,000 -344 Level Houston Center
Mon 12:20:47 PM 26.3050 -97.6592 182° South 158 182 1,300 -694 Descending Houston Center
Mon 12:21:48 PM 26.2672 -97.6594 180° South 126 145 600 14,619 Descending Houston Center
Mon 12:22:53 PM 26.2261 -97.6586 179° South 136 157 32,000 28,985 Climbing Houston Center
Mon 12:24:00 PM 26.2271 -97.6551 180° South  Level Estimated

Login

Don't have an account? Register now (free) for customized features, flight alerts, and more!